Time;durP1;ratioP1;P1;durP2;ratioP2;P2;SDS_P1;SDS_P2;PMS_P1;PMS_P2;Temp;Humidity;BMP_temperature;BMP_pressure;BME280_temperature;BME280_humidity;BME280_pressure;Samples;Min_cycle;Max_cycle;Signal;HPM_P1;HPM_P2
2022/08/28 00:01:44;;;;;;;8.35;3.85;;;;;;;21.91;100.00;-24425.75;4998363;28;20183;-69
2022/08/28 00:04:10;;;;;;;7.28;4.38;;;;;;;21.84;100.00;-24423.94;5003078;28;20191;-65
2022/08/28 00:06:35;;;;;;;9.30;4.82;;;;;;;21.46;100.00;-24413.44;4996846;28;20184;-65
2022/08/28 00:09:01;;;;;;;7.20;4.32;;;;;;;21.78;100.00;-24422.16;4998768;28;20267;-68
2022/08/28 00:11:26;;;;;;;8.38;3.92;;;;;;;21.69;100.00;-24419.66;4996830;28;20172;-70
2022/08/28 00:13:51;;;;;;;7.93;4.70;;;;;;;21.63;100.00;-24418.00;4997463;28;20200;-66
2022/08/28 00:16:17;;;;;;;6.63;4.10;;;;;;;21.57;100.00;-24416.47;5003701;28;20704;-67
2022/08/28 00:18:44;;;;;;;7.00;4.38;;;;;;;21.50;100.00;-24414.66;4996980;28;20615;-69
2022/08/28 00:21:10;;;;;;;7.65;4.03;;;;;;;21.45;100.00;-24413.28;5002463;28;20706;-65
2022/08/28 00:23:36;;;;;;;6.32;4.20;;;;;;;21.14;100.00;-24404.84;4996507;28;20230;-66
2022/08/28 00:26:01;;;;;;;8.88;4.72;;;;;;;21.37;100.00;-24410.94;4998064;28;20181;-72
2022/08/28 00:28:28;;;;;;;8.18;4.72;;;;;;;21.38;100.00;-24411.34;4996478;28;20172;-67
2022/08/28 00:30:57;;;;;;;6.93;4.32;;;;;;;21.36;100.00;-24410.66;4999071;28;20714;-69
2022/08/28 00:33:31;;;;;;;8.52;4.60;;;;;;;21.30;100.00;-24409.13;5001186;28;20556;-65
2022/08/28 00:35:58;;;;;;;8.60;4.57;;;;;;;20.99;100.00;-24400.66;5001102;28;20182;-64
2022/08/28 00:38:26;;;;;;;5.70;4.35;;;;;;;20.96;100.00;-24399.69;5000508;28;20199;-71
2022/08/28 00:40:56;;;;;;;6.72;4.43;;;;;;;21.19;100.00;-24405.94;5001101;28;20243;-69
2022/08/28 00:43:32;;;;;;;7.55;4.15;;;;;;;20.82;100.00;-24395.94;5005543;28;20258;-70
2022/08/28 00:45:59;;;;;;;7.97;4.45;;;;;;;21.13;100.00;-24404.56;5004163;28;20626;-70
2022/08/28 00:48:24;;;;;;;6.53;4.20;;;;;;;21.00;100.00;-24400.81;4999911;28;20189;-72
2022/08/28 00:53:33;;;;;;;7.18;3.88;;;;;;;20.98;100.00;-24400.25;4999084;28;20191;-64
2022/08/28 00:56:04;;;;;;;8.60;4.47;;;;;;;20.84;100.00;-24396.50;5004816;28;20180;-71
2022/08/28 00:58:29;;;;;;;6.93;4.35;;;;;;;20.66;100.00;-24391.66;4999483;28;20615;-71
2022/08/28 01:00:55;;;;;;;9.27;4.30;;;;;;;20.89;100.00;-24397.75;5006375;28;20180;-69
2022/08/28 01:03:20;;;;;;;6.45;4.07;;;;;;;21.17;100.00;-24405.38;5000202;28;20553;-68
2022/08/28 01:05:48;;;;;;;6.22;4.15;;;;;;;20.84;100.00;-24396.50;5000623;28;20184;-67
2022/08/28 01:08:14;;;;;;;10.40;4.47;;;;;;;20.88;100.00;-24397.47;5001143;28;20184;-72
2022/08/28 01:10:44;;;;;;;7.55;4.05;;;;;;;20.68;100.00;-24392.19;4999265;28;20677;-70
2022/08/28 01:13:10;;;;;;;7.35;4.50;;;;;;;20.57;100.00;-24389.00;5004009;28;20180;-69
2022/08/28 01:15:37;;;;;;;8.93;4.60;;;;;;;21.07;100.00;-24402.75;5001736;28;20212;-71
2022/08/28 01:18:07;;;;;;;8.13;4.40;;;;;;;21.01;100.00;-24401.09;5008691;28;20377;-66
2022/08/28 01:20:36;;;;;;;5.90;4.38;;;;;;;21.19;100.00;-24405.94;5001348;28;20220;-71
2022/08/28 01:23:07;;;;;;;12.30;3.92;;;;;;;21.17;100.00;-24405.53;5001058;28;20185;-66
2022/08/28 01:25:35;;;;;;;7.43;4.30;;;;;;;20.77;100.00;-24394.56;4998899;28;20264;-69
2022/08/28 01:28:04;;;;;;;7.30;4.72;;;;;;;20.95;100.00;-24399.56;5000798;28;20181;-69
2022/08/28 01:30:31;;;;;;;5.80;3.45;;;;;;;20.66;100.00;-24391.50;5004065;28;20191;-72
2022/08/28 01:32:56;;;;;;;10.05;4.15;;;;;;;20.83;100.00;-24396.09;5002656;28;20180;-68
2022/08/28 01:35:25;;;;;;;9.57;4.82;;;;;;;20.79;100.00;-24394.97;4999137;28;20604;-70
2022/08/28 01:37:52;;;;;;;6.53;4.05;;;;;;;20.36;100.00;-24383.19;4999940;28;20192;-73
2022/08/28 01:40:26;;;;;;;7.95;4.53;;;;;;;20.46;100.00;-24385.97;4999988;28;20179;-71
2022/08/28 01:42:54;;;;;;;10.18;4.50;;;;;;;20.50;100.00;-24387.22;4999762;28;20180;-70
2022/08/28 01:45:22;;;;;;;8.48;4.28;;;;;;;20.36;100.00;-24383.19;4999720;28;20565;-68
2022/08/28 01:47:48;;;;;;;6.38;3.47;;;;;;;20.18;100.00;-24378.47;4999640;28;20193;-67
2022/08/28 01:50:18;;;;;;;5.82;3.97;;;;;;;20.57;100.00;-24389.00;5001075;28;20555;-72
2022/08/28 01:52:43;;;;;;;9.90;4.30;;;;;;;20.28;100.00;-24381.09;5005848;28;20192;-66
2022/08/28 01:55:10;;;;;;;8.10;3.75;;;;;;;20.29;100.00;-24381.38;5006773;28;20766;-69
2022/08/28 01:57:48;;;;;;;8.63;4.03;;;;;;;20.48;100.00;-24386.53;5003592;28;20220;-71
2022/08/28 02:00:14;;;;;;;7.88;4.45;;;;;;;20.37;100.00;-24383.59;5005450;28;20180;-70
2022/08/28 02:02:40;;;;;;;9.77;4.30;;;;;;;19.58;100.00;-24361.78;5001073;28;20312;-69
2022/08/28 02:05:07;;;;;;;6.32;4.10;;;;;;;19.81;100.00;-24368.19;5000928;28;20211;-64
2022/08/28 02:07:32;;;;;;;7.95;4.18;;;;;;;20.11;100.00;-24376.38;4998527;28;20181;-67
2022/08/28 02:09:58;;;;;;;6.53;4.05;;;;;;;19.69;100.00;-24364.97;5002180;28;20615;-68
2022/08/28 02:12:24;;;;;;;6.00;4.03;;;;;;;19.63;100.00;-24363.16;5003128;28;20550;-65
2022/08/28 02:14:49;;;;;;;7.82;4.50;;;;;;;19.82;100.00;-24368.59;4999044;28;20208;-69
2022/08/28 02:17:15;;;;;;;7.07;4.20;;;;;;;19.67;100.00;-24364.28;5000349;28;20191;-70
2022/08/28 02:19:40;;;;;;;8.63;5.00;;;;;;;19.53;100.00;-24360.38;4998816;28;20225;-66
2022/08/28 02:22:08;;;;;;;7.63;4.75;;;;;;;19.71;100.00;-24365.53;5000688;28;20650;-70
2022/08/28 02:24:34;;;;;;;8.73;4.22;;;;;;;19.29;100.00;-24354.00;4997988;28;20184;-68
2022/08/28 02:27:01;;;;;;;7.18;4.18;;;;;;;19.59;100.00;-24362.06;5002684;28;20588;-71
2022/08/28 02:29:27;;;;;;;7.43;4.55;;;;;;;19.50;100.00;-24359.56;4998031;28;20200;-67
2022/08/28 02:31:53;;;;;;;11.23;4.80;;;;;;;19.44;100.00;-24357.88;5005830;28;20250;-69
2022/08/28 02:34:18;;;;;;;7.82;3.85;;;;;;;19.47;100.00;-24358.84;5007012;28;20694;-67
2022/08/28 02:36:43;;;;;;;8.55;4.80;;;;;;;19.56;100.00;-24361.22;4984701;28;20239;-71
2022/08/28 02:39:10;;;;;;;9.27;4.80;;;;;;;19.56;100.00;-24361.22;5005157;28;20188;-70
2022/08/28 02:41:36;;;;;;;6.85;4.22;;;;;;;19.50;100.00;-24359.56;5002696;28;20188;-65
2022/08/28 02:44:02;;;;;;;10.13;4.60;;;;;;;19.34;100.00;-24355.38;4999779;28;20659;-67
2022/08/28 02:46:27;;;;;;;6.97;4.20;;;;;;;19.65;100.00;-24363.72;4998069;28;20185;-65
2022/08/28 02:48:54;;;;;;;6.57;3.95;;;;;;;19.67;100.00;-24364.28;4999220;28;21130;-67
2022/08/28 02:51:19;;;;;;;7.07;4.28;;;;;;;19.63;100.00;-24363.31;4998828;28;20183;-66
2022/08/28 02:53:45;;;;;;;6.25;4.35;;;;;;;19.35;100.00;-24355.53;4997979;28;20238;-66
2022/08/28 02:56:11;;;;;;;9.18;4.75;;;;;;;19.73;100.00;-24366.09;5002544;28;20176;-71
2022/08/28 02:58:38;;;;;;;7.70;4.47;;;;;;;19.43;100.00;-24357.75;5004803;28;20242;-69
2022/08/28 03:01:06;;;;;;;6.43;4.03;;;;;;;19.43;100.00;-24357.75;5007083;28;20685;-68
2022/08/28 03:03:32;;;;;;;9.52;3.90;;;;;;;19.40;100.00;-24356.91;5005613;28;20195;-66
2022/08/28 03:05:59;;;;;;;7.85;3.90;;;;;;;19.40;100.00;-24356.91;4999138;28;20184;-68
2022/08/28 03:08:25;;;;;;;7.32;4.10;;;;;;;19.70;100.00;-24365.25;4997416;28;20271;-67
2022/08/28 03:10:51;;;;;;;6.25;3.78;;;;;;;19.57;100.00;-24361.66;4998135;28;20192;-69
2022/08/28 03:13:17;;;;;;;6.97;4.40;;;;;;;19.35;100.00;-24355.53;4998793;28;20184;-65
2022/08/28 03:15:44;;;;;;;6.93;4.22;;;;;;;19.48;100.00;-24359.13;5010206;28;20636;-69
2022/08/28 03:18:12;;;;;;;9.77;4.25;;;;;;;19.37;100.00;-24356.06;5003238;28;20234;-67
2022/08/28 03:20:38;;;;;;;5.57;3.70;;;;;;;19.25;100.00;-24352.75;5008847;28;20259;-69
2022/08/28 03:25:49;;;;;;;7.15;4.25;;;;;;;19.67;100.00;-24364.28;4998068;28;20255;-65
2022/08/28 03:28:14;;;;;;;7.03;3.83;;;;;;;19.77;100.00;-24367.06;5000979;28;20272;-66
2022/08/28 03:30:40;;;;;;;6.05;3.67;;;;;;;19.55;100.00;-24361.09;5003046;28;20260;-66
2022/08/28 03:33:05;;;;;;;6.55;4.03;;;;;;;19.89;100.00;-24370.25;5001296;28;20658;-71
2022/08/28 03:35:31;;;;;;;5.95;4.13;;;;;;;19.54;100.00;-24360.81;5000471;28;20212;-69
2022/08/28 03:37:56;;;;;;;7.70;4.10;;;;;;;19.47;100.00;-24358.84;5005447;28;20191;-66
2022/08/28 03:40:22;;;;;;;6.43;4.07;;;;;;;19.45;100.00;-24358.31;5001833;28;20176;-70
2022/08/28 03:42:47;;;;;;;6.90;3.85;;;;;;;19.76;100.00;-24366.94;5002971;28;20199;-69
2022/08/28 03:45:13;;;;;;;9.50;4.05;;;;;;;19.39;100.00;-24356.78;5002101;28;20639;-67
2022/08/28 03:47:40;;;;;;;7.72;4.50;;;;;;;19.85;100.00;-24369.28;4999791;28;20529;-69
2022/08/28 03:50:08;;;;;;;6.50;3.75;;;;;;;19.84;100.00;-24369.00;4999065;28;20280;-69
2022/08/28 03:52:33;;;;;;;7.05;3.97;;;;;;;19.51;100.00;-24359.84;4996413;28;20176;-71
2022/08/28 03:55:00;;;;;;;7.18;3.90;;;;;;;19.81;100.00;-24368.19;5004453;28;20208;-70
2022/08/28 03:57:25;;;;;;;7.30;3.53;;;;;;;19.76;100.00;-24366.94;5002915;28;20212;-67
2022/08/28 03:59:52;;;;;;;7.88;4.28;;;;;;;19.96;100.00;-24372.22;4999622;28;20276;-67
2022/08/28 04:02:19;;;;;;;6.82;4.07;;;;;;;19.89;100.00;-24370.25;5001954;28;20186;-66
2022/08/28 04:04:49;;;;;;;7.90;4.15;;;;;;;20.13;100.00;-24376.94;5002418;28;20633;-67
2022/08/28 04:07:16;;;;;;;7.32;4.25;;;;;;;20.06;100.00;-24375.13;5000718;28;20202;-67
2022/08/28 04:09:42;;;;;;;8.60;4.60;;;;;;;20.67;100.00;-24391.94;4997946;28;20634;-69
2022/08/28 04:12:07;;;;;;;11.55;4.35;;;;;;;20.99;100.00;-24400.66;5002964;28;20172;-67
2022/08/28 04:14:34;;;;;;;8.48;4.30;;;;;;;20.82;100.00;-24395.81;5000526;28;20737;-69
2022/08/28 04:16:59;;;;;;;5.53;3.67;;;;;;;21.19;100.00;-24405.94;5005062;28;20189;-68
2022/08/28 04:19:24;;;;;;;6.22;4.03;;;;;;;21.44;100.00;-24413.00;5000763;28;20713;-68
2022/08/28 04:21:50;;;;;;;6.80;4.30;;;;;;;21.76;100.00;-24421.59;5000525;28;20938;-67
2022/08/28 04:24:16;;;;;;;7.68;4.60;;;;;;;22.01;100.00;-24428.66;5005432;28;20188;-70
2022/08/28 04:26:41;;;;;;;7.50;4.20;;;;;;;22.02;100.00;-24428.94;5002606;28;20189;-67
2022/08/28 04:29:07;;;;;;;6.78;4.30;;;;;;;22.35;100.00;-24437.78;5002986;28;20184;-65
2022/08/28 04:31:33;;;;;;;10.10;4.40;;;;;;;22.96;100.00;-24454.53;5005686;28;20192;-68
2022/08/28 04:34:04;;;;;;;7.22;4.47;;;;;;;22.81;100.00;-24450.53;5007948;28;20300;-68
2022/08/28 04:36:30;;;;;;;4.90;3.67;;;;;;;22.79;100.00;-24449.84;4998750;28;20184;-66
2022/08/28 04:38:59;;;;;;;7.25;4.10;;;;;;;23.16;100.00;-24459.94;5001908;28;20188;-71
2022/08/28 04:41:25;;;;;;;6.22;3.78;;;;;;;22.90;100.00;-24452.88;5000505;28;20208;-66
2022/08/28 04:43:52;;;;;;;8.18;4.07;;;;;;;22.61;100.00;-24444.84;5002126;28;20385;-70
2022/08/28 04:46:18;;;;;;;5.60;3.70;;;;;;;22.60;100.00;-24444.72;5000585;28;20258;-65
2022/08/28 04:48:44;;;;;;;6.40;3.80;;;;;;;22.30;100.00;-24436.41;4999829;28;20647;-68
2022/08/28 04:51:11;;;;;;;8.63;4.38;;;;;;;22.46;100.00;-24440.84;5006278;28;20190;-69
2022/08/28 04:53:37;;;;;;;5.53;4.05;;;;;;;22.23;100.00;-24434.47;4999143;28;20239;-67
2022/08/28 04:56:09;;;;;;;8.18;4.05;;;;;;;22.27;100.00;-24435.59;5008344;28;20275;-73
2022/08/28 04:58:35;;;;;;;7.05;4.10;;;;;;;22.43;100.00;-24440.16;5002548;28;20602;-64
2022/08/28 05:01:17;;;;;;;5.78;3.90;;;;;;;22.74;100.00;-24448.44;5008934;28;20270;-67
2022/08/28 05:03:44;;;;;;;15.00;4.15;;;;;;;22.77;100.00;-24449.41;5001310;28;20220;-65
2022/08/28 05:06:12;;;;;;;8.05;3.90;;;;;;;22.74;100.00;-24448.59;5007158;28;20182;-68
2022/08/28 05:08:37;;;;;;;6.82;4.00;;;;;;;23.12;100.00;-24458.94;4999368;28;20622;-68
2022/08/28 05:11:10;;;;;;;9.90;4.40;;;;;;;23.24;100.00;-24462.28;5001818;28;20183;-66
2022/08/28 05:13:36;;;;;;;4.68;3.83;;;;;;;23.02;100.00;-24456.19;5003767;28;20184;-70
2022/08/28 05:16:03;;;;;;;9.27;3.88;;;;;;;23.46;100.00;-24468.06;5002754;28;20207;-67
2022/08/28 05:18:28;;;;;;;8.93;4.82;;;;;;;23.13;100.00;-24459.22;5002897;28;20192;-70
2022/08/28 05:20:54;;;;;;;6.25;3.65;;;;;;;23.61;100.00;-24472.22;5001847;28;20188;-68
2022/08/28 05:23:19;;;;;;;6.47;4.10;;;;;;;23.43;100.00;-24467.38;5004565;28;20598;-68
2022/08/28 05:25:47;;;;;;;5.07;3.80;;;;;;;23.64;100.00;-24473.19;4999365;28;20193;-68
2022/08/28 05:28:15;;;;;;;9.57;3.95;;;;;;;23.92;100.00;-24480.63;5003750;28;20196;-71
2022/08/28 05:30:42;;;;;;;9.35;4.57;;;;;;;23.95;100.00;-24481.47;5001085;28;20181;-67
2022/08/28 05:33:09;;;;;;;7.88;4.10;;;;;;;23.62;100.00;-24472.63;5000964;28;20675;-65
2022/08/28 05:35:37;;;;;;;6.82;3.88;;;;;;;23.64;100.00;-24473.03;4999109;28;20227;-70
2022/08/28 05:38:03;;;;;;;7.07;3.80;;;;;;;23.41;100.00;-24466.81;5000966;28;20671;-69
2022/08/28 05:40:29;;;;;;;7.13;3.97;;;;;;;23.56;100.00;-24470.97;5003857;28;20188;-71
2022/08/28 05:42:55;;;;;;;5.55;3.75;;;;;;;23.60;100.00;-24472.06;5000248;28;20184;-69
2022/08/28 05:45:21;;;;;;;10.68;4.10;;;;;;;23.84;100.00;-24478.44;4999516;28;20275;-69
2022/08/28 05:47:47;;;;;;;6.18;3.63;;;;;;;23.85;100.00;-24478.69;5006390;28;20246;-66
2022/08/28 05:50:13;;;;;;;6.38;4.20;;;;;;;24.29;100.00;-24490.84;5007465;28;20183;-68
2022/08/28 05:52:39;;;;;;;9.05;3.60;;;;;;;23.95;100.00;-24481.47;5001226;28;20176;-70
2022/08/28 05:55:07;;;;;;;4.43;3.53;;;;;;;24.62;100.00;-24499.81;5006568;28;20301;-68
2022/08/28 05:57:32;;;;;;;7.10;4.10;;;;;;;24.07;100.00;-24484.78;4998649;28;20185;-67
2022/08/28 05:59:58;;;;;;;6.10;3.80;;;;;;;24.28;100.00;-24490.56;5000482;28;20187;-68
2022/08/28 06:02:23;;;;;;;5.95;4.13;;;;;;;24.64;100.00;-24500.34;4999039;28;20614;-68
2022/08/28 06:04:49;;;;;;;12.00;4.00;;;;;;;24.84;97.87;-24505.88;5000259;28;20721;-66
2022/08/28 06:07:14;;;;;;;5.32;3.58;;;;;;;24.74;96.67;-24503.09;5003947;28;20666;-69
2022/08/28 06:09:41;;;;;;;7.65;4.70;;;;;;;25.04;98.22;-24511.38;4998653;28;20181;-68
2022/08/28 06:12:07;;;;;;;6.63;4.03;;;;;;;25.01;96.88;-24510.56;5003602;28;20190;-68
2022/08/28 06:14:32;;;;;;;7.05;4.22;;;;;;;24.99;97.96;-24510.00;5002960;28;20299;-68
2022/08/28 06:16:58;;;;;;;7.85;4.05;;;;;;;25.42;95.52;-24521.69;4981784;28;20366;-68
2022/08/28 06:19:27;;;;;;;6.78;3.78;;;;;;;25.39;97.03;-24520.72;5001865;28;20231;-69
2022/08/28 06:21:56;;;;;;;7.05;3.80;;;;;;;25.66;96.20;-24528.03;4999863;28;20212;-69
2022/08/28 06:24:22;;;;;;;5.35;4.03;;;;;;;25.92;92.93;-24535.19;4999265;28;20237;-72
2022/08/28 06:26:47;;;;;;;7.45;4.63;;;;;;;26.09;90.80;-24539.72;4998267;28;20184;-70
2022/08/28 06:29:16;;;;;;;7.95;4.40;;;;;;;26.32;88.24;-24546.16;5000155;28;20625;-70
2022/08/28 06:31:41;;;;;;;5.18;3.60;;;;;;;26.26;81.85;-24544.53;4998117;28;20188;-69
2022/08/28 06:34:08;;;;;;;5.55;3.78;;;;;;;26.51;84.35;-24551.25;4999341;28;20199;-69
2022/08/28 06:36:37;;;;;;;8.25;3.72;;;;;;;26.58;81.27;-24553.03;4997711;28;20180;-66
2022/08/28 06:39:05;;;;;;;9.00;4.25;;;;;;;26.57;80.88;-24552.91;5002511;28;20548;-70
2022/08/28 06:41:33;;;;;;;7.28;3.80;;;;;;;26.46;79.07;-24549.75;4997520;28;20291;-70
2022/08/28 06:43:59;;;;;;;6.40;3.90;;;;;;;26.44;80.53;-24549.34;4999840;28;20227;-72
2022/08/28 06:46:25;;;;;;;9.27;4.15;;;;;;;26.35;79.22;-24547.00;4998460;28;20185;-71
2022/08/28 06:48:51;;;;;;;6.53;4.03;;;;;;;26.92;77.16;-24562.38;5001213;28;21093;-68
2022/08/28 06:51:17;;;;;;;7.45;4.00;;;;;;;26.97;76.62;-24563.59;4999524;28;20191;-70
2022/08/28 06:53:44;;;;;;;6.40;4.05;;;;;;;26.90;78.50;-24561.81;4997507;28;20176;-69
2022/08/28 06:56:18;;;;;;;8.70;4.40;;;;;;;27.22;77.12;-24570.59;5005276;28;20666;-72
2022/08/28 06:58:45;;;;;;;5.63;3.92;;;;;;;27.04;76.65;-24565.53;4997407;28;20561;-69
2022/08/28 07:01:10;;;;;;;5.78;3.80;;;;;;;27.55;75.24;-24579.38;4999552;28;20181;-71
2022/08/28 07:03:37;;;;;;;10.13;3.70;;;;;;;27.57;73.37;-24579.91;4980806;28;20223;-68
2022/08/28 07:06:05;;;;;;;9.35;4.32;;;;;;;27.23;72.31;-24570.88;5000804;28;20190;-70
2022/08/28 07:08:31;;;;;;;6.72;3.92;;;;;;;27.42;71.29;-24575.81;5000213;28;20207;-71
2022/08/28 07:10:58;;;;;;;5.53;3.58;;;;;;;27.65;69.56;-24582.13;5005653;28;20226;-65
2022/08/28 07:13:24;;;;;;;6.32;3.88;;;;;;;27.86;71.66;-24587.88;5005954;28;20184;-67
2022/08/28 07:15:50;;;;;;;6.70;3.80;;;;;;;28.08;69.51;-24593.88;5004041;28;20203;-69
2022/08/28 07:18:16;;;;;;;4.80;3.67;;;;;;;28.31;70.07;-24600.06;5001848;28;20188;-71
2022/08/28 07:20:42;;;;;;;5.13;3.53;;;;;;;28.32;68.26;-24600.19;5012280;28;20228;-68
2022/08/28 07:23:07;;;;;;;5.20;3.40;;;;;;;28.53;67.45;-24606.06;5003485;28;20561;-67
2022/08/28 07:25:33;;;;;;;6.70;3.90;;;;;;;28.54;68.30;-24606.22;5002149;28;20762;-65
2022/08/28 07:27:59;;;;;;;5.93;3.63;;;;;;;28.38;66.07;-24601.84;4999434;28;20183;-65
2022/08/28 07:30:25;;;;;;;8.85;4.63;;;;;;;28.54;65.67;-24606.22;4996972;28;20654;-65
2022/08/28 07:32:50;;;;;;;6.35;3.80;;;;;;;28.38;68.09;-24601.84;4997324;28;20198;-67
2022/08/28 07:35:17;;;;;;;5.95;3.65;;;;;;;28.77;67.54;-24612.50;5003043;28;20204;-66
2022/08/28 07:37:43;;;;;;;7.72;3.88;;;;;;;28.73;63.73;-24611.28;5001809;28;20270;-66
2022/08/28 07:40:10;;;;;;;8.75;3.75;;;;;;;28.87;64.88;-24615.22;5001268;28;20655;-69
2022/08/28 07:45:20;;;;;;;7.50;3.90;;;;;;;28.79;65.84;-24612.91;4999755;28;20194;-71
2022/08/28 07:47:46;;;;;;;6.50;3.75;;;;;;;29.18;63.09;-24623.56;5003621;28;20180;-70
2022/08/28 07:50:12;;;;;;;6.80;3.45;;;;;;;29.55;60.43;-24633.41;5008296;28;20547;-65
2022/08/28 07:52:37;;;;;;;5.90;3.75;;;;;;;29.61;60.07;-24635.19;5002245;28;20576;-69
2022/08/28 07:55:04;;;;;;;4.95;3.55;;;;;;;29.67;60.52;-24636.81;4998336;28;20204;-65
2022/08/28 07:57:30;;;;;;;6.25;3.60;;;;;;;29.51;59.95;-24632.31;5007510;28;20183;-71
2022/08/28 07:59:58;;;;;;;6.82;3.50;;;;;;;30.03;59.31;-24646.50;5006445;28;20187;-67
2022/08/28 08:02:23;;;;;;;9.90;3.70;;;;;;;30.15;60.07;-24649.63;4996665;28;20565;-68
2022/08/28 08:04:49;;;;;;;4.60;3.35;;;;;;;30.23;57.00;-24651.81;4997880;28;20193;-65
2022/08/28 08:07:16;;;;;;;8.88;3.90;;;;;;;30.21;60.04;-24651.41;4998528;28;20248;-65
2022/08/28 08:09:43;;;;;;;6.40;3.20;;;;;;;30.44;64.38;-24657.41;5003275;28;20227;-68
2022/08/28 08:12:09;;;;;;;6.90;3.65;;;;;;;30.52;62.71;-24659.72;5005643;28;20175;-65
2022/08/28 08:14:36;;;;;;;5.45;3.78;;;;;;;30.65;59.21;-24663.13;4999470;28;20239;-68
2022/08/28 08:17:03;;;;;;;7.38;3.70;;;;;;;30.56;53.95;-24660.81;5000446;28;20175;-66
2022/08/28 08:19:28;;;;;;;7.88;3.63;;;;;;;30.14;55.52;-24649.38;5000092;28;20728;-67
2022/08/28 08:21:54;;;;;;;5.22;3.78;;;;;;;30.34;57.57;-24654.69;5003474;28;20175;-62
2022/08/28 08:24:21;;;;;;;12.43;4.07;;;;;;;30.49;55.01;-24658.78;5007371;28;20238;-62
2022/08/28 08:26:48;;;;;;;5.47;3.35;;;;;;;30.14;54.24;-24649.38;4997985;28;20180;-59
2022/08/28 08:29:14;;;;;;;6.30;4.15;;;;;;;30.27;59.15;-24653.03;5007300;28;20183;-60
2022/08/28 08:31:40;;;;;;;6.63;3.95;;;;;;;30.39;57.79;-24656.19;5011366;28;20191;-61
2022/08/28 08:34:07;;;;;;;5.68;3.85;;;;;;;30.77;56.54;-24666.25;5011462;28;20211;-58
2022/08/28 08:36:34;;;;;;;6.53;3.88;;;;;;;30.46;57.40;-24658.09;5011297;28;20225;-59
2022/08/28 08:39:00;;;;;;;5.18;3.30;;;;;;;31.03;59.04;-24673.34;5011857;28;20258;-59
2022/08/28 08:41:32;;;;;;;6.28;3.55;;;;;;;31.23;56.36;-24678.78;5007844;28;20935;-57
2022/08/28 08:43:57;;;;;;;5.68;3.67;;;;;;;31.43;55.28;-24684.09;4991237;28;20176;-58
2022/08/28 08:46:31;;;;;;;7.72;4.47;;;;;;;31.38;54.68;-24682.88;4990689;28;20169;-59
2022/08/28 08:49:01;;;;;;;6.43;3.47;;;;;;;31.00;55.86;-24672.53;4991413;28;20176;-59
2022/08/28 08:51:40;;;;;;;5.45;3.50;;;;;;;31.02;55.14;-24673.22;4993915;28;20178;-59
2022/08/28 08:54:13;;;;;;;4.93;3.42;;;;;;;31.23;56.49;-24678.78;5005897;28;20270;-60
2022/08/28 08:56:40;;;;;;;5.13;3.72;;;;;;;31.11;51.85;-24675.53;5012970;28;20203;-59
2022/08/28 08:59:11;;;;;;;5.38;3.45;;;;;;;31.14;52.80;-24676.34;5014516;28;20286;-59
2022/08/28 09:01:49;;;;;;;5.97;3.78;;;;;;;31.09;52.31;-24675.09;5014610;28;20187;-59
2022/08/28 09:04:38;;;;;;;6.47;3.88;;;;;;;31.49;50.98;-24685.84;5014377;28;20190;-60
2022/08/28 09:07:12;;;;;;;6.60;3.72;;;;;;;31.68;51.19;-24690.75;5014162;28;20163;-60
2022/08/28 09:09:48;;;;;;;8.70;3.38;;;;;;;31.49;50.58;-24685.84;5008106;28;20184;-58
2022/08/28 09:12:17;;;;;;;7.88;3.70;;;;;;;31.61;52.19;-24688.97;5014557;28;20179;-58
2022/08/28 09:15:09;;;;;;;9.25;3.90;;;;;;;31.81;50.54;-24694.41;5007511;28;20222;-58
2022/08/28 09:17:58;;;;;;;5.10;3.58;;;;;;;32.06;48.74;-24701.06;5014299;28;20251;-59
2022/08/28 09:20:26;;;;;;;8.73;3.78;;;;;;;32.06;51.72;-24700.94;5014063;28;20231;-58
2022/08/28 09:22:52;;;;;;;7.13;3.67;;;;;;;32.01;49.33;-24699.72;5014237;28;20277;-58
2022/08/28 09:25:48;;;;;;;6.60;3.80;;;;;;;31.78;51.62;-24693.59;5007666;28;20270;-57
2022/08/28 09:28:18;;;;;;;6.40;3.42;;;;;;;31.80;51.26;-24694.16;4998527;28;20193;-58
2022/08/28 09:30:52;;;;;;;4.30;3.20;;;;;;;31.91;49.80;-24697.00;5014341;28;20551;-59
2022/08/28 09:33:27;;;;;;;6.47;3.60;;;;;;;31.96;49.93;-24698.50;4996501;28;20663;-59
2022/08/28 09:35:53;;;;;;;4.22;3.58;;;;;;;31.97;49.56;-24698.63;5013813;28;20588;-59
2022/08/28 09:38:22;;;;;;;5.43;3.65;;;;;;;32.26;51.06;-24706.50;5013412;28;20168;-59
2022/08/28 09:43:35;;;;;;;4.95;3.38;;;;;;;32.34;49.92;-24708.69;5013995;28;20491;-59
2022/08/28 09:46:15;;;;;;;4.95;3.22;;;;;;;32.29;47.95;-24707.19;5013361;28;20705;-59
2022/08/28 09:48:43;;;;;;;5.47;3.08;;;;;;;32.36;49.51;-24709.09;5013724;28;20604;-60
2022/08/28 09:51:26;;;;;;;7.05;3.50;;;;;;;32.27;52.64;-24706.78;5013197;28;20175;-59
2022/08/28 09:53:55;;;;;;;4.88;3.58;;;;;;;32.61;53.68;-24715.88;5013587;28;20198;-58
2022/08/28 09:56:33;;;;;;;8.23;4.25;;;;;;;32.81;52.29;-24721.28;5007237;28;20214;-59
2022/08/28 09:59:06;;;;;;;8.30;5.32;;;;;;;32.92;52.56;-24724.00;5013646;28;20258;-59
2022/08/28 10:01:38;;;;;;;5.75;4.00;;;;;;;32.82;50.89;-24721.44;5006738;28;20557;-59
2022/08/28 10:04:25;;;;;;;6.85;3.85;;;;;;;32.99;49.53;-24725.91;5007574;28;20179;-59
2022/08/28 10:06:55;;;;;;;6.82;4.05;;;;;;;33.05;48.88;-24727.66;5005098;28;20190;-59
2022/08/28 10:09:50;;;;;;;11.00;5.00;;;;;;;33.44;47.94;-24737.97;5003587;28;20258;-58
2022/08/28 10:12:25;;;;;;;7.80;3.70;;;;;;;33.20;46.03;-24731.72;5002012;28;20710;-59
2022/08/28 10:14:57;;;;;;;8.65;4.20;;;;;;;32.86;46.76;-24722.50;5006021;28;20238;-59
2022/08/28 10:17:38;;;;;;;5.88;3.22;;;;;;;33.02;49.25;-24726.84;5008051;28;20481;-58
2022/08/28 10:20:12;;;;;;;10.07;4.25;;;;;;;32.49;47.36;-24712.47;5004288;28;20366;-58
2022/08/28 10:22:57;;;;;;;7.10;3.60;;;;;;;32.62;48.22;-24716.00;5012705;28;20184;-58
2022/08/28 10:25:31;;;;;;;8.38;4.68;;;;;;;32.88;49.80;-24723.19;5012839;28;20263;-59
2022/08/28 10:28:34;;;;;;;8.23;4.00;;;;;;;33.15;49.51;-24730.25;5012432;28;20540;-59
2022/08/28 10:31:26;;;;;;;7.85;3.67;;;;;;;33.47;48.33;-24738.78;5010493;28;20191;-58
2022/08/28 10:34:41;;;;;;;7.57;3.53;;;;;;;33.43;47.33;-24737.69;5006654;28;20183;-57
2022/08/28 10:37:22;;;;;;;6.47;3.50;;;;;;;33.79;47.26;-24747.31;4977644;28;20692;-58
2022/08/28 10:39:58;;;;;;;8.00;3.45;;;;;;;33.48;47.61;-24739.06;5006534;28;20203;-58
2022/08/28 10:42:38;;;;;;;5.53;3.38;;;;;;;33.72;49.19;-24745.53;5007758;28;20171;-58
2022/08/28 10:45:23;;;;;;;5.63;3.80;;;;;;;33.72;44.49;-24745.69;5012235;28;20206;-58
2022/08/28 10:48:18;;;;;;;5.32;3.17;;;;;;;34.04;42.99;-24754.19;5012626;28;20169;-59
2022/08/28 10:50:50;;;;;;;8.30;3.33;;;;;;;34.27;44.14;-24760.16;5006708;28;20203;-59
2022/08/28 10:53:23;;;;;;;6.50;4.55;;;;;;;34.11;44.67;-24755.97;5012430;28;20176;-60
2022/08/28 10:56:02;;;;;;;9.48;3.50;;;;;;;34.36;41.82;-24762.59;4994792;28;20238;-59
2022/08/28 10:58:30;;;;;;;8.02;3.13;;;;;;;34.03;41.16;-24753.94;5012096;28;20164;-60
2022/08/28 11:01:01;;;;;;;3.90;3.00;;;;;;;34.41;41.78;-24764.06;5012064;28;20175;-60
2022/08/28 11:03:30;;;;;;;6.10;3.50;;;;;;;34.02;42.48;-24753.53;5012408;28;20627;-60
2022/08/28 11:06:05;;;;;;;4.68;3.58;;;;;;;33.94;41.56;-24751.38;5012133;28;20638;-60
2022/08/28 11:08:34;;;;;;;5.75;3.47;;;;;;;33.76;40.96;-24746.50;5011761;28;20257;-59
2022/08/28 11:11:05;;;;;;;6.78;3.75;;;;;;;33.85;42.51;-24748.94;5011756;28;21072;-59
2022/08/28 11:13:56;;;;;;;5.43;3.30;;;;;;;33.68;41.76;-24744.47;5011788;28;20167;-59
2022/08/28 11:16:37;;;;;;;7.80;3.53;;;;;;;33.58;41.74;-24741.75;5011385;28;20175;-59
2022/08/28 11:19:15;;;;;;;8.85;3.88;;;;;;;33.46;41.18;-24738.63;5011655;28;20705;-60
2022/08/28 11:21:52;;;;;;;7.88;3.47;;;;;;;33.45;43.23;-24738.22;5012091;28;20225;-59
2022/08/28 11:24:23;;;;;;;9.68;3.78;;;;;;;33.64;43.73;-24743.50;5011924;28;20175;-60
2022/08/28 11:27:19;;;;;;;5.75;3.35;;;;;;;33.80;41.46;-24747.72;5011286;28;20175;-60
2022/08/28 11:30:00;;;;;;;5.32;3.08;;;;;;;33.94;42.44;-24751.50;5011969;28;20234;-60
2022/08/28 11:32:53;;;;;;;5.22;3.72;;;;;;;33.98;43.00;-24752.44;5012089;28;20661;-60
2022/08/28 11:35:19;;;;;;;9.55;4.53;;;;;;;34.22;41.75;-24758.81;5003835;28;20215;-59
2022/08/28 11:37:49;;;;;;;8.40;5.40;;;;;;;34.25;40.94;-24759.63;5012155;28;20238;-59
2022/08/28 11:40:19;;;;;;;13.85;7.95;;;;;;;34.53;39.56;-24767.19;4994390;28;20183;-61